sensor_id;sensor_type;location;lat;lon;timestamp;pressure;altitude;pressure_sealevel;temperature;humidity
68301;BME280;55146;47.468;18.806;2023-07-31T00:02:21;99752.50;;;19.85;91.96
68301;BME280;55146;47.468;18.806;2023-07-31T00:04:47;99741.66;;;19.83;91.92
68301;BME280;55146;47.468;18.806;2023-07-31T00:07:12;99751.19;;;19.82;91.96
68301;BME280;55146;47.468;18.806;2023-07-31T00:09:38;99751.56;;;19.81;91.92
68301;BME280;55146;47.468;18.806;2023-07-31T00:12:03;99745.16;;;19.80;91.76
68301;BME280;55146;47.468;18.806;2023-07-31T00:14:29;99741.53;;;19.79;91.43
68301;BME280;55146;47.468;18.806;2023-07-31T00:16:54;99742.22;;;19.76;91.20
68301;BME280;55146;47.468;18.806;2023-07-31T00:19:19;99739.31;;;19.73;91.20
68301;BME280;55146;47.468;18.806;2023-07-31T00:21:45;99749.19;;;19.70;91.04
68301;BME280;55146;47.468;18.806;2023-07-31T00:24:10;99743.47;;;19.67;90.96
68301;BME280;55146;47.468;18.806;2023-07-31T00:26:35;99742.19;;;19.64;90.92
68301;BME280;55146;47.468;18.806;2023-07-31T00:29:01;99748.09;;;19.63;90.75
68301;BME280;55146;47.468;18.806;2023-07-31T00:31:26;99752.06;;;19.62;90.72
68301;BME280;55146;47.468;18.806;2023-07-31T00:33:52;99751.91;;;19.58;90.62
68301;BME280;55146;47.468;18.806;2023-07-31T00:36:17;99747.88;;;19.56;90.52
68301;BME280;55146;47.468;18.806;2023-07-31T00:38:43;99760.19;;;19.55;90.45
68301;BME280;55146;47.468;18.806;2023-07-31T00:41:08;99761.00;;;19.55;90.32
68301;BME280;55146;47.468;18.806;2023-07-31T00:43:34;99756.91;;;19.53;90.12
68301;BME280;55146;47.468;18.806;2023-07-31T00:45:59;99765.50;;;19.48;90.16
68301;BME280;55146;47.468;18.806;2023-07-31T00:48:25;99749.37;;;19.45;90.17
68301;BME280;55146;47.468;18.806;2023-07-31T00:50:51;99746.12;;;19.43;90.30
68301;BME280;55146;47.468;18.806;2023-07-31T00:53:16;99746.00;;;19.39;90.29
68301;BME280;55146;47.468;18.806;2023-07-31T00:55:42;99752.28;;;19.36;90.30
68301;BME280;55146;47.468;18.806;2023-07-31T00:58:08;99749.00;;;19.34;90.20
68301;BME280;55146;47.468;18.806;2023-07-31T01:00:33;99746.91;;;19.31;90.22
68301;BME280;55146;47.468;18.806;2023-07-31T01:02:59;99747.09;;;19.26;90.14
68301;BME280;55146;47.468;18.806;2023-07-31T01:05:36;99751.88;;;19.25;90.20
68301;BME280;55146;47.468;18.806;2023-07-31T01:08:13;99761.41;;;19.24;90.04
68301;BME280;55146;47.468;18.806;2023-07-31T01:10:52;99759.59;;;19.20;90.08
68301;BME280;55146;47.468;18.806;2023-07-31T01:13:20;99760.31;;;19.17;90.07
68301;BME280;55146;47.468;18.806;2023-07-31T01:15:46;99763.97;;;19.09;90.41
68301;BME280;55146;47.468;18.806;2023-07-31T01:18:11;99763.84;;;19.05;90.42
68301;BME280;55146;47.468;18.806;2023-07-31T01:20:37;99756.28;;;19.06;90.38
68301;BME280;55146;47.468;18.806;2023-07-31T01:31:21;99749.81;;;18.93;91.00
68301;BME280;55146;47.468;18.806;2023-07-31T01:33:48;99743.97;;;18.86;91.56
68301;BME280;55146;47.468;18.806;2023-07-31T01:36:14;99748.22;;;18.83;91.85
68301;BME280;55146;47.468;18.806;2023-07-31T01:38:40;99739.84;;;18.83;91.94
68301;BME280;55146;47.468;18.806;2023-07-31T01:41:05;99731.16;;;18.85;91.90
68301;BME280;55146;47.468;18.806;2023-07-31T01:43:30;99726.06;;;18.87;91.82
68301;BME280;55146;47.468;18.806;2023-07-31T01:45:56;99723.22;;;18.75;92.08
68301;BME280;55146;47.468;18.806;2023-07-31T01:48:21;99728.97;;;18.70;92.23
68301;BME280;55146;47.468;18.806;2023-07-31T01:50:46;99728.34;;;18.64;92.64
68301;BME280;55146;47.468;18.806;2023-07-31T01:53:12;99717.75;;;18.57;93.20
68301;BME280;55146;47.468;18.806;2023-07-31T01:55:38;99715.00;;;18.40;94.05
68301;BME280;55146;47.468;18.806;2023-07-31T01:58:04;99720.22;;;18.50;93.60
68301;BME280;55146;47.468;18.806;2023-07-31T02:00:29;99718.56;;;18.49;93.50
68301;BME280;55146;47.468;18.806;2023-07-31T02:02:54;99720.34;;;18.54;93.32
68301;BME280;55146;47.468;18.806;2023-07-31T02:05:20;99718.91;;;18.48;93.12
68301;BME280;55146;47.468;18.806;2023-07-31T02:07:45;99713.84;;;18.41;93.55
68301;BME280;55146;47.468;18.806;2023-07-31T02:10:10;99718.47;;;18.37;93.40
68301;BME280;55146;47.468;18.806;2023-07-31T02:12:35;99726.72;;;18.25;93.98
68301;BME280;55146;47.468;18.806;2023-07-31T02:15:01;99731.50;;;18.16;94.49
68301;BME280;55146;47.468;18.806;2023-07-31T02:17:26;99734.87;;;17.92;96.13
68301;BME280;55146;47.468;18.806;2023-07-31T02:19:52;99738.78;;;17.91;95.73
68301;BME280;55146;47.468;18.806;2023-07-31T02:22:17;99738.97;;;17.77;96.48
68301;BME280;55146;47.468;18.806;2023-07-31T02:24:43;99746.69;;;17.81;96.17
68301;BME280;55146;47.468;18.806;2023-07-31T02:27:08;99743.75;;;17.77;95.88
68301;BME280;55146;47.468;18.806;2023-07-31T02:29:34;99735.88;;;17.88;95.73
68301;BME280;55146;47.468;18.806;2023-07-31T02:31:59;99742.25;;;17.88;95.17
68301;BME280;55146;47.468;18.806;2023-07-31T02:34:24;99746.69;;;17.81;95.20
68301;BME280;55146;47.468;18.806;2023-07-31T02:36:50;99751.75;;;17.78;94.95
68301;BME280;55146;47.468;18.806;2023-07-31T02:39:15;99756.84;;;17.76;95.76
68301;BME280;55146;47.468;18.806;2023-07-31T02:41:40;99759.28;;;17.78;96.03
68301;BME280;55146;47.468;18.806;2023-07-31T02:44:06;99757.69;;;17.77;96.56
68301;BME280;55146;47.468;18.806;2023-07-31T02:46:31;99750.78;;;17.74;96.75
68301;BME280;55146;47.468;18.806;2023-07-31T02:48:57;99762.72;;;17.84;96.09
68301;BME280;55146;47.468;18.806;2023-07-31T02:51:22;99752.09;;;17.77;96.86
68301;BME280;55146;47.468;18.806;2023-07-31T02:53:48;99755.22;;;17.67;97.24
68301;BME280;55146;47.468;18.806;2023-07-31T02:56:13;99748.38;;;17.64;97.62
68301;BME280;55146;47.468;18.806;2023-07-31T02:58:38;99749.16;;;17.48;98.28
68301;BME280;55146;47.468;18.806;2023-07-31T03:01:04;99749.78;;;17.53;98.20
68301;BME280;55146;47.468;18.806;2023-07-31T03:03:29;99743.28;;;17.49;98.15
68301;BME280;55146;47.468;18.806;2023-07-31T03:05:54;99744.41;;;17.48;98.15
68301;BME280;55146;47.468;18.806;2023-07-31T03:08:20;99758.81;;;17.50;98.24
68301;BME280;55146;47.468;18.806;2023-07-31T03:10:46;99761.28;;;17.52;97.95
68301;BME280;55146;47.468;18.806;2023-07-31T03:13:11;99773.37;;;17.47;98.28
68301;BME280;55146;47.468;18.806;2023-07-31T03:15:37;99773.22;;;17.52;97.83
68301;BME280;55146;47.468;18.806;2023-07-31T03:18:02;99766.84;;;17.52;97.49
68301;BME280;55146;47.468;18.806;2023-07-31T03:20:27;99767.97;;;17.51;97.44
68301;BME280;55146;47.468;18.806;2023-07-31T03:22:53;99769.12;;;17.58;97.06
68301;BME280;55146;47.468;18.806;2023-07-31T03:25:18;99775.19;;;17.60;97.23
68301;BME280;55146;47.468;18.806;2023-07-31T03:27:43;99774.19;;;17.73;96.02
68301;BME280;55146;47.468;18.806;2023-07-31T03:30:09;99792.66;;;17.87;95.08
68301;BME280;55146;47.468;18.806;2023-07-31T03:32:34;99792.31;;;17.97;94.22
68301;BME280;55146;47.468;18.806;2023-07-31T03:35:00;99788.06;;;17.99;93.44
68301;BME280;55146;47.468;18.806;2023-07-31T03:37:25;99792.63;;;18.04;93.14
68301;BME280;55146;47.468;18.806;2023-07-31T03:39:51;99793.81;;;17.94;93.27
68301;BME280;55146;47.468;18.806;2023-07-31T03:42:16;99792.03;;;17.90;93.84
68301;BME280;55146;47.468;18.806;2023-07-31T03:44:42;99794.00;;;17.89;93.77
68301;BME280;55146;47.468;18.806;2023-07-31T03:47:07;99803.47;;;17.88;93.84
68301;BME280;55146;47.468;18.806;2023-07-31T03:49:33;99797.25;;;17.91;93.78
68301;BME280;55146;47.468;18.806;2023-07-31T03:51:58;99795.94;;;17.89;93.25
68301;BME280;55146;47.468;18.806;2023-07-31T03:54:23;99798.25;;;17.78;94.38
68301;BME280;55146;47.468;18.806;2023-07-31T03:56:49;99790.72;;;17.78;94.35
68301;BME280;55146;47.468;18.806;2023-07-31T03:59:14;99791.53;;;17.79;94.51
68301;BME280;55146;47.468;18.806;2023-07-31T04:01:40;99795.63;;;17.82;94.56
68301;BME280;55146;47.468;18.806;2023-07-31T04:04:05;99793.66;;;17.82;94.56
68301;BME280;55146;47.468;18.806;2023-07-31T04:06:30;99802.03;;;17.82;94.51
68301;BME280;55146;47.468;18.806;2023-07-31T04:08:56;99793.81;;;17.86;94.33
68301;BME280;55146;47.468;18.806;2023-07-31T04:11:21;99794.81;;;17.81;94.08
68301;BME280;55146;47.468;18.806;2023-07-31T04:13:46;99792.34;;;17.79;93.56
68301;BME280;55146;47.468;18.806;2023-07-31T04:16:12;99792.38;;;17.71;94.17
68301;BME280;55146;47.468;18.806;2023-07-31T04:18:37;99802.97;;;17.77;93.59
68301;BME280;55146;47.468;18.806;2023-07-31T04:21:03;99802.50;;;17.67;93.74
68301;BME280;55146;47.468;18.806;2023-07-31T04:23:28;99798.09;;;17.74;93.50
68301;BME280;55146;47.468;18.806;2023-07-31T04:25:54;99800.06;;;17.74;92.22
68301;BME280;55146;47.468;18.806;2023-07-31T04:28:19;99803.34;;;17.76;92.19
68301;BME280;55146;47.468;18.806;2023-07-31T04:30:44;99798.41;;;17.73;92.26
68301;BME280;55146;47.468;18.806;2023-07-31T04:33:12;99799.72;;;17.75;91.77
68301;BME280;55146;47.468;18.806;2023-07-31T04:35:37;99787.59;;;17.80;90.24
68301;BME280;55146;47.468;18.806;2023-07-31T04:38:02;99793.50;;;17.78;88.99
68301;BME280;55146;47.468;18.806;2023-07-31T04:40:28;99794.00;;;17.81;87.94
68301;BME280;55146;47.468;18.806;2023-07-31T04:42:53;99795.13;;;17.79;86.73
68301;BME280;55146;47.468;18.806;2023-07-31T04:45:18;99795.81;;;17.76;86.29
68301;BME280;55146;47.468;18.806;2023-07-31T04:47:44;99801.69;;;17.84;85.46
68301;BME280;55146;47.468;18.806;2023-07-31T04:50:09;99800.53;;;17.85;82.63
68301;BME280;55146;47.468;18.806;2023-07-31T04:52:35;99803.31;;;17.85;83.57
68301;BME280;55146;47.468;18.806;2023-07-31T04:55:00;99806.75;;;17.82;84.24
68301;BME280;55146;47.468;18.806;2023-07-31T04:57:25;99812.66;;;17.89;83.65
68301;BME280;55146;47.468;18.806;2023-07-31T04:59:51;99807.91;;;17.81;84.14
68301;BME280;55146;47.468;18.806;2023-07-31T05:02:16;99811.66;;;17.85;84.74
68301;BME280;55146;47.468;18.806;2023-07-31T05:04:42;99816.41;;;17.93;84.44
68301;BME280;55146;47.468;18.806;2023-07-31T05:07:07;99810.34;;;17.91;84.58
68301;BME280;55146;47.468;18.806;2023-07-31T05:09:32;99807.72;;;17.86;84.18
68301;BME280;55146;47.468;18.806;2023-07-31T05:11:58;99810.69;;;17.81;83.39
68301;BME280;55146;47.468;18.806;2023-07-31T05:14:23;99811.00;;;17.88;82.91
68301;BME280;55146;47.468;18.806;2023-07-31T05:16:48;99816.41;;;17.84;83.69
68301;BME280;55146;47.468;18.806;2023-07-31T05:19:14;99821.31;;;17.87;83.58
68301;BME280;55146;47.468;18.806;2023-07-31T05:21:39;99821.97;;;17.93;83.57
68301;BME280;55146;47.468;18.806;2023-07-31T05:24:06;99819.34;;;17.88;83.18
68301;BME280;55146;47.468;18.806;2023-07-31T05:26:31;99816.22;;;18.06;82.51
68301;BME280;55146;47.468;18.806;2023-07-31T05:28:57;99823.75;;;18.06;83.78
68301;BME280;55146;47.468;18.806;2023-07-31T05:31:23;99825.84;;;18.09;84.10
68301;BME280;55146;47.468;18.806;2023-07-31T05:33:49;99822.41;;;18.21;82.74
68301;BME280;55146;47.468;18.806;2023-07-31T05:36:15;99823.19;;;18.30;80.20
68301;BME280;55146;47.468;18.806;2023-07-31T05:38:41;99834.16;;;18.35;79.98
68301;BME280;55146;47.468;18.806;2023-07-31T05:41:07;99839.19;;;18.50;78.60
68301;BME280;55146;47.468;18.806;2023-07-31T05:43:32;99826.41;;;18.57;78.01
68301;BME280;55146;47.468;18.806;2023-07-31T05:45:57;99830.81;;;18.58;77.31
68301;BME280;55146;47.468;18.806;2023-07-31T05:48:23;99828.28;;;18.74;75.66
68301;BME280;55146;47.468;18.806;2023-07-31T05:50:48;99833.03;;;18.82;75.53
68301;BME280;55146;47.468;18.806;2023-07-31T05:53:13;99835.13;;;18.85;76.20
68301;BME280;55146;47.468;18.806;2023-07-31T05:55:39;99836.53;;;19.00;75.77
68301;BME280;55146;47.468;18.806;2023-07-31T05:58:04;99832.44;;;18.97;75.69
68301;BME280;55146;47.468;18.806;2023-07-31T06:00:29;99829.44;;;19.03;74.75
68301;BME280;55146;47.468;18.806;2023-07-31T06:02:55;99829.44;;;19.03;74.71
68301;BME280;55146;47.468;18.806;2023-07-31T06:05:20;99836.09;;;19.19;76.24
68301;BME280;55146;47.468;18.806;2023-07-31T06:07:45;99834.37;;;19.26;73.99
68301;BME280;55146;47.468;18.806;2023-07-31T06:10:11;99834.13;;;19.40;74.34
68301;BME280;55146;47.468;18.806;2023-07-31T06:12:36;99832.41;;;19.56;72.44
68301;BME280;55146;47.468;18.806;2023-07-31T06:15:03;99834.28;;;19.64;71.67
68301;BME280;55146;47.468;18.806;2023-07-31T06:17:29;99828.09;;;19.79;72.51
68301;BME280;55146;47.468;18.806;2023-07-31T06:19:55;99836.62;;;19.95;73.01
68301;BME280;55146;47.468;18.806;2023-07-31T06:22:21;99835.19;;;20.10;72.17
68301;BME280;55146;47.468;18.806;2023-07-31T06:24:46;99835.41;;;20.05;69.54
68301;BME280;55146;47.468;18.806;2023-07-31T06:27:12;99832.87;;;20.12;70.64
68301;BME280;55146;47.468;18.806;2023-07-31T06:29:37;99827.13;;;20.08;69.76
68301;BME280;55146;47.468;18.806;2023-07-31T06:32:03;99835.25;;;20.01;71.22
68301;BME280;55146;47.468;18.806;2023-07-31T06:34:28;99839.41;;;19.95;70.50
68301;BME280;55146;47.468;18.806;2023-07-31T06:36:56;99830.00;;;20.00;69.79
68301;BME280;55146;47.468;18.806;2023-07-31T06:39:22;99831.59;;;19.89;70.39
68301;BME280;55146;47.468;18.806;2023-07-31T06:41:49;99834.00;;;19.78;70.56
68301;BME280;55146;47.468;18.806;2023-07-31T06:44:14;99832.41;;;19.89;69.11
68301;BME280;55146;47.468;18.806;2023-07-31T06:46:40;99843.38;;;19.94;69.78
68301;BME280;55146;47.468;18.806;2023-07-31T06:49:05;99830.66;;;19.85;68.80
68301;BME280;55146;47.468;18.806;2023-07-31T06:51:31;99842.66;;;19.64;68.28
68301;BME280;55146;47.468;18.806;2023-07-31T06:53:57;99832.03;;;19.58;69.95
68301;BME280;55146;47.468;18.806;2023-07-31T06:56:28;99830.88;;;19.59;68.06
68301;BME280;55146;47.468;18.806;2023-07-31T06:58:55;99824.16;;;19.60;70.40
68301;BME280;55146;47.468;18.806;2023-07-31T07:01:20;99841.50;;;19.65;68.31
68301;BME280;55146;47.468;18.806;2023-07-31T07:03:46;99847.78;;;19.95;68.25
68301;BME280;55146;47.468;18.806;2023-07-31T07:06:11;99845.81;;;20.29;66.51
68301;BME280;55146;47.468;18.806;2023-07-31T07:08:37;99833.00;;;20.73;65.80
68301;BME280;55146;47.468;18.806;2023-07-31T07:11:02;99851.44;;;21.10;63.97
68301;BME280;55146;47.468;18.806;2023-07-31T07:13:27;99851.00;;;21.60;62.54
68301;BME280;55146;47.468;18.806;2023-07-31T07:15:53;99846.72;;;22.03;62.74
68301;BME280;55146;47.468;18.806;2023-07-31T07:18:18;99845.78;;;21.99;60.45
68301;BME280;55146;47.468;18.806;2023-07-31T07:20:49;99844.62;;;21.88;58.57
68301;BME280;55146;47.468;18.806;2023-07-31T07:23:14;99847.16;;;22.05;60.11
68301;BME280;55146;47.468;18.806;2023-07-31T07:25:40;99843.94;;;22.18;60.04
68301;BME280;55146;47.468;18.806;2023-07-31T07:28:05;99853.22;;;22.07;59.43
68301;BME280;55146;47.468;18.806;2023-07-31T07:30:31;99851.78;;;22.13;58.60
68301;BME280;55146;47.468;18.806;2023-07-31T07:32:56;99852.16;;;21.71;58.49
68301;BME280;55146;47.468;18.806;2023-07-31T07:35:21;99847.84;;;21.62;61.11
68301;BME280;55146;47.468;18.806;2023-07-31T07:37:48;99845.28;;;21.69;62.51
68301;BME280;55146;47.468;18.806;2023-07-31T07:40:15;99849.59;;;22.06;60.26
68301;BME280;55146;47.468;18.806;2023-07-31T07:42:40;99839.84;;;22.16;58.78
68301;BME280;55146;47.468;18.806;2023-07-31T07:45:06;99850.31;;;22.63;56.24
68301;BME280;55146;47.468;18.806;2023-07-31T07:47:32;99849.59;;;22.66;56.10
68301;BME280;55146;47.468;18.806;2023-07-31T07:49:57;99844.38;;;22.64;54.79
68301;BME280;55146;47.468;18.806;2023-07-31T07:52:22;99851.97;;;22.79;53.01
68301;BME280;55146;47.468;18.806;2023-07-31T07:54:47;99850.91;;;22.99;53.84
68301;BME280;55146;47.468;18.806;2023-07-31T07:57:13;99850.44;;;23.13;54.37
68301;BME280;55146;47.468;18.806;2023-07-31T07:59:40;99847.28;;;23.34;51.83
68301;BME280;55146;47.468;18.806;2023-07-31T08:02:05;99849.00;;;23.54;51.75
68301;BME280;55146;47.468;18.806;2023-07-31T08:04:31;99848.22;;;23.92;54.99
68301;BME280;55146;47.468;18.806;2023-07-31T08:06:56;99845.03;;;23.74;54.71
68301;BME280;55146;47.468;18.806;2023-07-31T08:09:21;99846.13;;;24.08;51.39
68301;BME280;55146;47.468;18.806;2023-07-31T08:11:56;99849.63;;;24.21;49.83
68301;BME280;55146;47.468;18.806;2023-07-31T08:14:27;99846.28;;;24.15;50.52
68301;BME280;55146;47.468;18.806;2023-07-31T08:16:52;99849.84;;;24.32;50.95
68301;BME280;55146;47.468;18.806;2023-07-31T08:19:18;99851.22;;;24.41;51.44
68301;BME280;55146;47.468;18.806;2023-07-31T08:21:43;99848.69;;;24.55;49.09
68301;BME280;55146;47.468;18.806;2023-07-31T08:24:11;99848.69;;;24.78;52.33
68301;BME280;55146;47.468;18.806;2023-07-31T08:26:37;99843.06;;;25.01;48.99
68301;BME280;55146;47.468;18.806;2023-07-31T08:29:02;99852.59;;;24.93;47.18
68301;BME280;55146;47.468;18.806;2023-07-31T08:31:28;99848.97;;;24.92;47.82
68301;BME280;55146;47.468;18.806;2023-07-31T08:33:54;99855.94;;;25.02;48.33
68301;BME280;55146;47.468;18.806;2023-07-31T08:36:19;99852.62;;;24.74;47.48
68301;BME280;55146;47.468;18.806;2023-07-31T08:38:45;99846.69;;;24.79;49.08
68301;BME280;55146;47.468;18.806;2023-07-31T08:41:10;99841.37;;;24.96;46.23
68301;BME280;55146;47.468;18.806;2023-07-31T08:43:36;99847.97;;;25.30;47.16
68301;BME280;55146;47.468;18.806;2023-07-31T08:46:03;99841.72;;;25.18;47.40
68301;BME280;55146;47.468;18.806;2023-07-31T08:48:29;99840.16;;;25.20;46.45
68301;BME280;55146;47.468;18.806;2023-07-31T08:50:54;99846.47;;;25.14;45.50
68301;BME280;55146;47.468;18.806;2023-07-31T08:53:20;99843.63;;;24.65;48.03
68301;BME280;55146;47.468;18.806;2023-07-31T08:55:46;99843.94;;;24.59;49.31
68301;BME280;55146;47.468;18.806;2023-07-31T08:58:14;99835.34;;;24.75;45.87
68301;BME280;55146;47.468;18.806;2023-07-31T09:00:41;99833.06;;;24.81;47.60
68301;BME280;55146;47.468;18.806;2023-07-31T09:03:15;99832.19;;;25.00;47.95
68301;BME280;55146;47.468;18.806;2023-07-31T09:05:46;99832.63;;;24.79;46.45
68301;BME280;55146;47.468;18.806;2023-07-31T09:08:20;99833.37;;;24.98;47.98
68301;BME280;55146;47.468;18.806;2023-07-31T09:10:46;99829.97;;;25.38;46.48
68301;BME280;55146;47.468;18.806;2023-07-31T09:13:14;99829.31;;;25.49;47.49
68301;BME280;55146;47.468;18.806;2023-07-31T09:15:46;99825.03;;;25.58;46.67
68301;BME280;55146;47.468;18.806;2023-07-31T09:18:12;99827.00;;;25.84;45.42
68301;BME280;55146;47.468;18.806;2023-07-31T09:20:37;99831.28;;;25.74;46.27
68301;BME280;55146;47.468;18.806;2023-07-31T09:23:11;99829.84;;;25.88;44.36
68301;BME280;55146;47.468;18.806;2023-07-31T09:25:38;99833.47;;;26.22;46.17
68301;BME280;55146;47.468;18.806;2023-07-31T09:28:08;99832.81;;;26.32;44.99
68301;BME280;55146;47.468;18.806;2023-07-31T09:30:50;99828.66;;;26.22;44.89
68301;BME280;55146;47.468;18.806;2023-07-31T09:33:17;99832.06;;;26.05;42.86
68301;BME280;55146;47.468;18.806;2023-07-31T09:35:43;99834.44;;;26.33;44.66
68301;BME280;55146;47.468;18.806;2023-07-31T09:38:13;99831.78;;;26.50;43.44
68301;BME280;55146;47.468;18.806;2023-07-31T09:40:41;99827.13;;;26.69;44.28
68301;BME280;55146;47.468;18.806;2023-07-31T09:43:09;99828.47;;;26.85;43.33
68301;BME280;55146;47.468;18.806;2023-07-31T09:45:37;99824.34;;;26.72;41.96
68301;BME280;55146;47.468;18.806;2023-07-31T09:48:03;99828.78;;;26.73;43.07
68301;BME280;55146;47.468;18.806;2023-07-31T09:50:31;99818.59;;;26.62;44.37
68301;BME280;55146;47.468;18.806;2023-07-31T09:52:57;99818.22;;;26.63;41.99
68301;BME280;55146;47.468;18.806;2023-07-31T09:55:24;99826.47;;;26.42;42.66
68301;BME280;55146;47.468;18.806;2023-07-31T09:57:50;99813.38;;;26.64;41.82
68301;BME280;55146;47.468;18.806;2023-07-31T10:00:17;99817.59;;;26.40;43.93
68301;BME280;55146;47.468;18.806;2023-07-31T10:02:47;99806.75;;;26.08;40.69
68301;BME280;55146;47.468;18.806;2023-07-31T10:05:15;99819.25;;;26.44;41.46
68301;BME280;55146;47.468;18.806;2023-07-31T10:07:51;99812.94;;;26.58;41.30
68301;BME280;55146;47.468;18.806;2023-07-31T10:10:23;99818.75;;;26.35;40.67
68301;BME280;55146;47.468;18.806;2023-07-31T10:12:50;99809.94;;;26.07;41.09
68301;BME280;55146;47.468;18.806;2023-07-31T10:15:17;99813.50;;;26.34;43.06
68301;BME280;55146;47.468;18.806;2023-07-31T10:17:43;99804.00;;;26.15;42.52
68301;BME280;55146;47.468;18.806;2023-07-31T10:20:10;99806.50;;;26.61;43.18
68301;BME280;55146;47.468;18.806;2023-07-31T10:22:36;99815.03;;;27.16;42.17
68301;BME280;55146;47.468;18.806;2023-07-31T10:25:02;99804.28;;;26.84;40.34
68301;BME280;55146;47.468;18.806;2023-07-31T10:27:27;99798.75;;;26.51;42.17
68301;BME280;55146;47.468;18.806;2023-07-31T10:29:55;99800.03;;;26.61;42.07
68301;BME280;55146;47.468;18.806;2023-07-31T10:32:22;99789.59;;;27.09;40.87
68301;BME280;55146;47.468;18.806;2023-07-31T10:34:50;99787.31;;;27.32;40.48
68301;BME280;55146;47.468;18.806;2023-07-31T10:37:37;99801.22;;;27.04;39.72
68301;BME280;55146;47.468;18.806;2023-07-31T10:40:05;99798.22;;;26.86;39.39
68301;BME280;55146;47.468;18.806;2023-07-31T10:42:57;99782.31;;;26.23;40.32
68301;BME280;55146;47.468;18.806;2023-07-31T10:45:34;99793.47;;;26.90;42.29
68301;BME280;55146;47.468;18.806;2023-07-31T10:48:06;99791.56;;;27.05;39.69
68301;BME280;55146;47.468;18.806;2023-07-31T10:50:40;99788.66;;;26.90;39.59
68301;BME280;55146;47.468;18.806;2023-07-31T10:53:26;99788.72;;;26.53;39.14
68301;BME280;55146;47.468;18.806;2023-07-31T10:55:51;99779.22;;;26.79;40.75
68301;BME280;55146;47.468;18.806;2023-07-31T10:58:19;99779.22;;;27.27;41.63
68301;BME280;55146;47.468;18.806;2023-07-31T11:00:47;99775.34;;;27.56;40.72
68301;BME280;55146;47.468;18.806;2023-07-31T11:03:15;99779.59;;;27.22;39.49
68301;BME280;55146;47.468;18.806;2023-07-31T11:08:13;99775.00;;;27.65;37.46
68301;BME280;55146;47.468;18.806;2023-07-31T11:10:38;99777.78;;;27.58;39.67
68301;BME280;55146;47.468;18.806;2023-07-31T11:13:05;99779.47;;;27.84;39.74
68301;BME280;55146;47.468;18.806;2023-07-31T11:15:32;99768.16;;;27.84;38.00
68301;BME280;55146;47.468;18.806;2023-07-31T11:17:57;99768.25;;;28.01;37.13
68301;BME280;55146;47.468;18.806;2023-07-31T11:20:25;99763.16;;;27.45;37.13
68301;BME280;55146;47.468;18.806;2023-07-31T11:22:50;99766.06;;;27.56;38.28
68301;BME280;55146;47.468;18.806;2023-07-31T11:25:16;99758.50;;;27.85;36.67
68301;BME280;55146;47.468;18.806;2023-07-31T11:27:42;99753.25;;;27.90;37.93
68301;BME280;55146;47.468;18.806;2023-07-31T11:30:09;99758.06;;;27.79;39.43
68301;BME280;55146;47.468;18.806;2023-07-31T11:32:38;99759.34;;;28.03;40.62
68301;BME280;55146;47.468;18.806;2023-07-31T11:35:03;99748.94;;;28.32;38.11
68301;BME280;55146;47.468;18.806;2023-07-31T11:37:43;99760.25;;;28.14;38.21
68301;BME280;55146;47.468;18.806;2023-07-31T11:40:10;99749.13;;;27.66;35.82
68301;BME280;55146;47.468;18.806;2023-07-31T11:42:36;99752.06;;;27.88;38.38
68301;BME280;55146;47.468;18.806;2023-07-31T11:45:05;99752.81;;;27.70;37.77
68301;BME280;55146;47.468;18.806;2023-07-31T11:47:36;99744.69;;;27.65;39.11
68301;BME280;55146;47.468;18.806;2023-07-31T11:50:07;99742.28;;;27.64;38.73
68301;BME280;55146;47.468;18.806;2023-07-31T11:52:44;99747.22;;;28.02;38.05
68301;BME280;55146;47.468;18.806;2023-07-31T11:55:12;99747.75;;;28.33;38.42
68301;BME280;55146;47.468;18.806;2023-07-31T11:57:39;99743.28;;;28.39;40.18
68301;BME280;55146;47.468;18.806;2023-07-31T12:00:09;99743.69;;;28.37;39.02
68301;BME280;55146;47.468;18.806;2023-07-31T12:02:36;99743.28;;;28.35;40.57
68301;BME280;55146;47.468;18.806;2023-07-31T12:05:12;99743.59;;;28.09;37.68
68301;BME280;55146;47.468;18.806;2023-07-31T12:10:29;99733.50;;;28.04;36.44
68301;BME280;55146;47.468;18.806;2023-07-31T12:15:42;99735.19;;;27.26;38.81
68301;BME280;55146;47.468;18.806;2023-07-31T12:18:15;99721.09;;;27.26;37.57
68301;BME280;55146;47.468;18.806;2023-07-31T12:20:48;99721.75;;;26.54;38.04
68301;BME280;55146;47.468;18.806;2023-07-31T12:23:25;99720.50;;;26.99;37.99
68301;BME280;55146;47.468;18.806;2023-07-31T12:26:14;99719.09;;;27.37;38.69
68301;BME280;55146;47.468;18.806;2023-07-31T12:28:45;99721.38;;;27.03;38.36
68301;BME280;55146;47.468;18.806;2023-07-31T12:31:15;99708.97;;;27.29;38.24
68301;BME280;55146;47.468;18.806;2023-07-31T12:33:45;99712.75;;;27.54;38.36
68301;BME280;55146;47.468;18.806;2023-07-31T12:36:16;99711.66;;;27.87;39.82
68301;BME280;55146;47.468;18.806;2023-07-31T12:38:42;99700.78;;;28.10;40.33
68301;BME280;55146;47.468;18.806;2023-07-31T12:41:07;99696.66;;;27.69;37.66
68301;BME280;55146;47.468;18.806;2023-07-31T12:43:37;99704.34;;;27.75;38.29
68301;BME280;55146;47.468;18.806;2023-07-31T12:46:03;99697.47;;;27.73;38.43
68301;BME280;55146;47.468;18.806;2023-07-31T12:48:29;99706.75;;;27.70;37.75
68301;BME280;55146;47.468;18.806;2023-07-31T12:50:55;99707.19;;;27.83;38.73
68301;BME280;55146;47.468;18.806;2023-07-31T12:53:20;99701.53;;;27.79;39.01
68301;BME280;55146;47.468;18.806;2023-07-31T12:55:46;99695.25;;;27.31;37.95
68301;BME280;55146;47.468;18.806;2023-07-31T12:58:11;99689.19;;;27.29;37.00
68301;BME280;55146;47.468;18.806;2023-07-31T13:00:37;99683.56;;;27.32;39.08
68301;BME280;55146;47.468;18.806;2023-07-31T13:03:03;99683.69;;;27.61;38.05
68301;BME280;55146;47.468;18.806;2023-07-31T13:05:28;99687.78;;;27.77;39.15